createdAt,value
2024-04-17T00:00:46.887Z,27.9080
2024-04-17T00:01:49.123Z,27.8960
2024-04-17T00:02:51.258Z,27.8610
2024-04-17T00:03:53.534Z,27.8390
2024-04-17T00:04:53.597Z,27.8470
2024-04-17T00:05:55.763Z,27.8530
2024-04-17T00:06:58.007Z,27.8400
2024-04-17T00:08:00.246Z,27.8380
2024-04-17T00:09:02.440Z,27.8330
2024-04-17T00:10:04.668Z,27.8160
2024-04-17T00:11:07.067Z,27.8100
2024-04-17T00:12:09.132Z,27.8270
2024-04-17T00:13:11.381Z,27.8220
2024-04-17T00:14:13.650Z,27.8370
2024-04-17T00:15:15.791Z,27.8380
2024-04-17T00:16:17.986Z,27.8250
2024-04-17T00:17:18.101Z,27.8030
2024-04-17T00:18:20.339Z,27.8140
2024-04-17T00:19:22.573Z,27.8140
2024-04-17T00:20:24.776Z,27.8140
2024-04-17T00:21:26.965Z,27.7990
2024-04-17T00:22:29.184Z,27.8110
2024-04-17T00:23:31.360Z,27.8280
2024-04-17T00:24:33.635Z,27.7880
2024-04-17T00:25:35.863Z,27.7610
2024-04-17T00:26:38.018Z,27.7640
2024-04-17T00:27:40.221Z,27.7360
2024-04-17T00:28:42.448Z,27.7130
2024-04-17T00:29:44.626Z,27.7010
2024-04-17T00:30:46.786Z,27.7320
2024-04-17T00:31:49.068Z,27.7100
2024-04-17T00:32:49.078Z,27.7370
2024-04-17T00:33:51.236Z,27.7580
2024-04-17T00:34:53.366Z,27.7580
2024-04-17T00:35:55.496Z,27.7910
2024-04-17T00:36:57.662Z,27.7740
2024-04-17T00:37:59.866Z,27.7860
2024-04-17T00:39:02.037Z,27.7910
2024-04-17T00:40:04.254Z,27.8020
2024-04-17T00:41:06.422Z,27.7710
2024-04-17T00:42:08.609Z,27.7820
2024-04-17T00:43:10.848Z,27.7690
2024-04-17T00:44:12.996Z,27.7540
2024-04-17T00:45:15.214Z,27.7630
2024-04-17T00:46:17.407Z,27.7520
2024-04-17T00:47:19.638Z,27.7130
2024-04-17T00:48:21.932Z,27.7180
2024-04-17T00:49:24.099Z,27.7080
2024-04-17T00:50:26.288Z,27.6970
2024-04-17T00:51:28.515Z,27.6760
2024-04-17T00:52:28.634Z,27.6760
2024-04-17T00:53:30.801Z,27.6740
2024-04-17T00:54:32.988Z,27.6680
2024-04-17T00:55:35.273Z,27.6610
2024-04-17T00:56:37.449Z,27.6650
2024-04-17T00:57:39.709Z,27.6800
2024-04-17T00:58:41.998Z,27.6800
2024-04-17T00:59:44.222Z,27.6460
2024-04-17T01:00:46.543Z,27.6400
2024-04-17T01:01:48.809Z,27.6340
2024-04-17T01:02:51.063Z,27.6450
2024-04-17T01:03:51.173Z,27.6500
2024-04-17T01:04:53.432Z,27.6560
2024-04-17T01:05:55.612Z,27.6830
2024-04-17T01:06:57.821Z,27.6890
2024-04-17T01:08:00.145Z,27.7060
2024-04-17T01:09:02.280Z,27.7110
2024-04-17T01:10:04.498Z,27.6890
2024-04-17T01:11:06.970Z,27.6920
2024-04-17T01:12:08.993Z,27.6980
2024-04-17T01:13:11.220Z,27.6920
2024-04-17T01:14:13.484Z,27.6710
2024-04-17T01:15:13.565Z,27.6920
2024-04-17T01:16:15.764Z,27.6650
2024-04-17T01:17:17.992Z,27.6920
2024-04-17T01:18:20.182Z,27.6820
2024-04-17T01:19:22.456Z,27.6710
2024-04-17T01:20:24.623Z,27.6670
2024-04-17T01:21:26.851Z,27.7000
2024-04-17T01:22:29.107Z,27.6890
2024-04-17T01:23:31.193Z,27.6610
2024-04-17T01:24:33.384Z,27.6670
2024-04-17T01:25:35.678Z,27.6500
2024-04-17T01:26:37.943Z,27.6610
2024-04-17T01:27:40.167Z,27.6600
2024-04-17T01:28:40.299Z,27.6820
2024-04-17T01:29:42.529Z,27.7170
2024-04-17T01:30:44.789Z,27.6890
2024-04-17T01:31:47.084Z,27.7020
2024-04-17T01:32:49.427Z,27.6960
2024-04-17T01:33:51.560Z,27.7110
2024-04-17T01:34:53.924Z,27.7180
2024-04-17T01:35:55.954Z,27.7410
2024-04-17T01:36:58.204Z,27.7470
2024-04-17T01:38:00.474Z,27.7580
2024-04-17T01:39:02.644Z,27.7700
2024-04-17T01:40:02.677Z,27.7920
2024-04-17T01:41:04.928Z,27.7970
2024-04-17T01:42:07.236Z,27.7910
2024-04-17T01:43:12.492Z,27.7910
2024-04-17T01:44:11.714Z,27.8140
2024-04-17T01:45:13.999Z,27.8080
2024-04-17T01:46:16.268Z,27.8140
2024-04-17T01:47:18.519Z,27.8080
2024-04-17T01:48:20.799Z,27.8030
2024-04-17T01:49:20.882Z,27.8020
2024-04-17T01:50:23.137Z,27.8080
2024-04-17T01:51:25.394Z,27.8020
2024-04-17T01:52:27.695Z,27.8020
2024-04-17T01:53:29.841Z,27.8190
2024-04-17T01:54:32.060Z,27.8290
2024-04-17T01:55:34.436Z,27.8130
2024-04-17T01:56:36.564Z,27.8240
2024-04-17T01:57:38.815Z,27.8130
2024-04-17T01:58:38.941Z,27.8030
2024-04-17T01:59:41.137Z,27.7970
2024-04-17T02:00:43.412Z,27.8020
2024-04-17T02:01:45.629Z,27.7790
2024-04-17T02:02:47.935Z,27.7910
2024-04-17T02:03:50.188Z,27.7910
2024-04-17T02:04:52.521Z,27.7860
2024-04-17T02:05:54.672Z,27.7910
2024-04-17T02:06:56.904Z,27.7860
2024-04-17T02:07:59.236Z,27.7760
2024-04-17T02:08:59.300Z,27.7700
2024-04-17T02:10:01.531Z,27.7810
2024-04-17T02:11:03.853Z,27.7760
2024-04-17T02:12:06.068Z,27.7810
2024-04-17T02:13:08.358Z,27.7920
2024-04-17T02:14:10.566Z,27.7970
2024-04-17T02:15:12.813Z,27.7870
2024-04-17T02:16:15.104Z,27.7870
2024-04-17T02:17:17.451Z,27.7920
2024-04-17T02:18:17.651Z,27.8030
2024-04-17T02:19:19.796Z,27.7910
2024-04-17T02:20:22.061Z,27.7740
2024-04-17T02:21:24.241Z,27.7910
2024-04-17T02:22:26.483Z,27.7860
2024-04-17T02:23:28.728Z,27.7630
2024-04-17T02:24:31.022Z,27.7740
2024-04-17T02:25:33.274Z,27.7690
2024-04-17T02:26:33.338Z,27.7470
2024-04-17T02:27:35.606Z,27.7410
2024-04-17T02:28:37.895Z,27.7240
2024-04-17T02:29:40.124Z,27.7180
2024-04-17T02:30:42.388Z,27.7080
2024-04-17T02:31:44.680Z,27.7180
2024-04-17T02:32:47.015Z,27.7180
2024-04-17T02:33:49.216Z,27.7310
2024-04-17T02:34:51.458Z,27.7200
2024-04-17T02:35:53.531Z,27.7260
2024-04-17T02:36:53.603Z,27.7150
2024-04-17T02:37:55.893Z,27.7080
2024-04-17T02:38:58.042Z,27.7150
2024-04-17T02:40:00.321Z,27.7030
2024-04-17T02:41:02.525Z,27.6810
2024-04-17T02:42:04.662Z,27.6760
2024-04-17T02:43:06.846Z,27.6620
2024-04-17T02:44:09.114Z,27.6460
2024-04-17T02:45:11.318Z,27.6680
2024-04-17T02:46:13.529Z,27.6520
2024-04-17T02:47:15.780Z,27.6660
2024-04-17T02:48:18.010Z,27.6660
2024-04-17T02:50:39.800Z,27.7230
2024-04-17T02:51:41.964Z,27.7070
2024-04-17T02:52:44.224Z,27.6750
2024-04-17T02:53:46.465Z,27.6750
2024-04-17T02:54:48.650Z,27.6570
2024-04-17T02:55:48.848Z,27.6570
2024-04-17T02:56:50.942Z,27.6450
2024-04-17T02:57:53.171Z,27.6450
2024-04-17T02:58:55.484Z,27.6290
2024-04-17T02:59:57.660Z,27.6170
2024-04-17T03:00:59.958Z,27.6210
2024-04-17T03:02:02.239Z,27.5940
2024-04-17T03:03:04.442Z,27.6010
2024-04-17T03:04:06.631Z,27.5900
2024-04-17T03:05:08.866Z,27.5900
2024-04-17T03:06:11.091Z,27.5900
2024-04-17T03:07:13.214Z,27.6010
2024-04-17T03:08:13.253Z,27.6010
2024-04-17T03:09:15.423Z,27.6120
2024-04-17T03:10:17.649Z,27.5900
2024-04-17T03:11:19.935Z,27.5560
2024-04-17T03:12:22.082Z,27.5540
2024-04-17T03:13:24.304Z,27.5260
2024-04-17T03:14:26.514Z,27.5300
2024-04-17T03:15:28.769Z,27.5240
2024-04-17T03:16:30.985Z,27.5410
2024-04-17T03:17:33.177Z,27.5430
2024-04-17T03:18:35.446Z,27.5270
2024-04-17T03:19:37.622Z,27.5100
2024-04-17T03:20:39.835Z,27.4920
2024-04-17T03:21:42.117Z,27.4690
2024-04-17T03:22:42.190Z,27.4530
2024-04-17T03:23:44.334Z,27.4600
2024-04-17T03:24:46.551Z,27.4670
2024-04-17T03:25:48.803Z,27.4720
2024-04-17T03:26:51.032Z,27.4980
2024-04-17T03:27:53.250Z,27.4980
2024-04-17T03:28:55.532Z,27.4980
2024-04-17T03:29:57.774Z,27.4800
2024-04-17T03:31:00.056Z,27.4870
2024-04-17T03:32:02.420Z,27.4800
2024-04-17T03:33:02.551Z,27.4750
2024-04-17T03:34:04.759Z,27.4590
2024-04-17T03:35:07.004Z,27.4430
2024-04-17T03:36:09.196Z,27.4200
2024-04-17T03:37:11.427Z,27.4580
2024-04-17T03:38:13.623Z,27.4580
2024-04-17T03:39:15.871Z,27.4430
2024-04-17T03:40:18.145Z,27.4530
2024-04-17T03:41:20.361Z,27.4640
2024-04-17T03:42:23.714Z,27.4640
2024-04-17T03:43:24.881Z,27.4800
2024-04-17T03:44:24.902Z,27.4750
2024-04-17T03:45:27.126Z,27.4720
2024-04-17T03:46:29.366Z,27.4490
2024-04-17T03:47:31.716Z,27.4440
2024-04-17T03:48:33.911Z,27.4330
2024-04-17T03:49:36.140Z,27.3940
2024-04-17T03:50:38.389Z,27.4050
2024-04-17T03:51:40.646Z,27.4480
2024-04-17T03:52:42.953Z,27.3870
2024-04-17T03:53:45.156Z,27.3930
2024-04-17T03:54:47.352Z,27.3860
2024-04-17T03:55:49.602Z,26.9150
2024-04-17T03:56:51.870Z,26.5770
2024-04-17T03:57:54.151Z,26.4950
2024-04-17T03:58:56.389Z,26.5800
2024-04-17T03:59:58.520Z,26.5890
2024-04-17T04:01:00.741Z,26.6700
2024-04-17T04:02:03.183Z,26.6220
2024-04-17T04:03:05.271Z,26.7600
2024-04-17T04:04:07.374Z,26.7800
2024-04-17T04:05:09.615Z,26.8610
2024-04-17T04:06:11.746Z,26.8430
2024-04-17T04:07:13.944Z,27.0190
2024-04-17T04:08:13.997Z,27.1290
2024-04-17T04:09:16.168Z,27.1340
2024-04-17T04:10:18.338Z,27.1360
2024-04-17T04:11:20.573Z,27.1620
2024-04-17T04:12:22.746Z,27.2240
2024-04-17T04:13:24.987Z,27.2870
2024-04-17T04:14:27.159Z,27.3100
2024-04-17T04:15:29.371Z,27.3130
2024-04-17T04:16:31.609Z,27.3150
2024-04-17T04:17:33.879Z,27.3040
2024-04-17T04:18:36.079Z,27.3390
2024-04-17T04:19:38.260Z,27.3550
2024-04-17T04:20:40.506Z,27.4090
2024-04-17T04:21:42.754Z,27.4050
2024-04-17T04:22:45.036Z,27.3950
2024-04-17T04:23:45.111Z,27.3950
2024-04-17T04:24:47.309Z,27.4090
2024-04-17T04:25:49.583Z,27.3940
2024-04-17T04:26:51.788Z,27.4300
2024-04-17T04:27:53.979Z,27.4270
2024-04-17T04:28:56.269Z,27.4050
2024-04-17T04:29:56.291Z,27.4050
2024-04-17T04:30:58.528Z,27.3950
2024-04-17T04:32:00.822Z,27.3800
2024-04-17T04:33:03.103Z,27.4010
2024-04-17T04:34:05.321Z,27.4150
2024-04-17T04:35:07.553Z,27.4270
2024-04-17T04:36:09.782Z,27.4460
2024-04-17T04:37:12.033Z,27.4510
2024-04-17T04:38:14.254Z,27.4640
2024-04-17T04:39:16.524Z,27.5130
2024-04-17T04:40:16.624Z,27.5300
2024-04-17T04:41:18.831Z,27.5570
2024-04-17T04:42:21.081Z,27.5180
2024-04-17T04:43:23.304Z,27.5020
2024-04-17T04:44:25.498Z,27.5100
2024-04-17T04:45:27.642Z,27.5320
2024-04-17T04:46:29.849Z,27.5970
2024-04-17T04:47:32.042Z,27.6920
2024-04-17T04:48:34.191Z,27.7540
2024-04-17T04:49:36.425Z,27.7260
2024-04-17T04:50:38.527Z,27.6820
2024-04-17T04:51:40.683Z,27.6730
2024-04-17T04:52:42.906Z,27.6450
2024-04-17T04:53:45.087Z,27.6370
2024-04-17T04:54:47.331Z,27.6210
2024-04-17T04:55:49.597Z,27.6140
2024-04-17T04:56:51.747Z,27.5870
2024-04-17T04:57:53.952Z,27.5770
2024-04-17T04:58:54.063Z,27.5710
2024-04-17T04:59:56.267Z,27.5510
2024-04-17T05:00:58.434Z,27.6010
2024-04-17T05:02:00.682Z,27.6620
2024-04-17T05:03:02.954Z,27.7310
2024-04-17T05:04:05.124Z,27.2160
2024-04-17T05:05:07.301Z,26.8080
2024-04-17T05:06:09.440Z,26.7630
2024-04-17T05:07:11.645Z,26.8780
2024-04-17T05:08:13.943Z,26.7410
2024-04-17T05:09:16.101Z,26.8820
2024-04-17T05:10:18.339Z,26.9260
2024-04-17T05:11:20.614Z,26.9640
2024-04-17T05:12:20.696Z,27.0040
2024-04-17T05:13:22.939Z,27.0490
2024-04-17T05:14:25.156Z,27.0540
2024-04-17T05:15:27.373Z,27.0820
2024-04-17T05:16:29.513Z,27.0850
2024-04-17T05:17:31.782Z,27.0820
2024-04-17T05:18:33.998Z,27.1300
2024-04-17T05:19:36.187Z,27.1270
2024-04-17T05:20:38.444Z,27.1290
2024-04-17T05:21:40.664Z,27.1380
2024-04-17T05:22:42.914Z,27.1450
2024-04-17T05:23:45.078Z,27.1700
2024-04-17T05:24:47.245Z,27.1830
2024-04-17T05:25:49.532Z,27.2100
2024-04-17T05:26:51.650Z,27.2320
2024-04-17T05:27:51.706Z,27.2290
2024-04-17T05:28:54.033Z,27.2290
2024-04-17T05:29:56.063Z,27.2500
2024-04-17T05:30:58.293Z,27.2610
2024-04-17T05:32:00.537Z,27.2870
2024-04-17T05:33:02.749Z,27.3260
2024-04-17T05:34:04.842Z,27.3390
2024-04-17T05:35:06.959Z,27.3340
2024-04-17T05:36:09.158Z,27.3650
2024-04-17T05:37:11.322Z,27.3770
2024-04-17T05:38:13.506Z,27.3660
2024-04-17T05:39:15.703Z,27.3980
2024-04-17T05:40:17.914Z,27.4200
2024-04-17T05:41:20.100Z,27.4800
2024-04-17T05:42:22.304Z,27.5020
2024-04-17T05:43:24.554Z,27.5100
2024-04-17T05:44:26.755Z,27.5050
2024-04-17T05:45:28.943Z,27.5250
2024-04-17T05:46:31.227Z,27.5520
2024-04-17T05:47:33.436Z,27.5670
2024-04-17T05:48:35.564Z,27.5930
2024-04-17T05:49:35.627Z,27.6080
2024-04-17T05:50:37.772Z,27.6300
2024-04-17T05:51:39.984Z,27.6390
2024-04-17T05:52:42.212Z,27.6560
2024-04-17T05:53:44.335Z,27.6770
2024-04-17T05:54:46.531Z,27.6930
2024-04-17T05:55:48.751Z,27.7040
2024-04-17T05:56:51.010Z,27.6940
2024-04-17T05:57:53.220Z,27.6780
2024-04-17T05:58:55.472Z,27.6780
2024-04-17T05:59:57.662Z,27.6830
2024-04-17T06:01:00.434Z,27.6970
2024-04-17T06:02:02.127Z,27.6910
2024-04-17T06:03:04.396Z,27.6970
2024-04-17T06:04:04.418Z,27.6970
2024-04-17T06:05:06.690Z,27.6980
2024-04-17T06:06:08.780Z,27.7130
2024-04-17T06:07:10.977Z,27.6820
2024-04-17T06:08:13.216Z,27.6780
2024-04-17T06:09:15.454Z,27.6720
2024-04-17T06:10:17.671Z,27.6720
2024-04-17T06:11:19.995Z,27.6560
2024-04-17T06:12:22.126Z,27.6670
2024-04-17T06:13:24.383Z,27.6490
2024-04-17T06:14:26.592Z,27.6520
2024-04-17T06:15:28.837Z,27.6720
2024-04-17T06:16:31.089Z,27.6850
2024-04-17T06:17:31.231Z,27.6680
2024-04-17T06:18:33.459Z,27.6740
2024-04-17T06:19:35.644Z,27.6680
2024-04-17T06:20:37.796Z,27.6850
2024-04-17T06:21:39.972Z,27.6790
2024-04-17T06:22:42.221Z,27.6850
2024-04-17T06:23:44.402Z,27.6910
2024-04-17T06:24:46.630Z,27.6790
2024-04-17T06:25:48.954Z,27.7220
2024-04-17T06:26:51.066Z,27.7110
2024-04-17T06:27:53.271Z,27.7020
2024-04-17T06:28:55.516Z,27.7130
2024-04-17T06:29:57.595Z,27.6910
2024-04-17T06:30:59.779Z,27.7290
2024-04-17T06:32:02.180Z,27.7330
2024-04-17T06:33:04.285Z,27.7330
2024-04-17T06:34:04.232Z,27.7020
2024-04-17T06:35:06.437Z,27.6850
2024-04-17T06:36:08.619Z,27.6760
2024-04-17T06:37:10.846Z,27.6570
2024-04-17T06:38:13.027Z,27.6620
2024-04-17T06:39:15.118Z,27.6620
2024-04-17T06:40:17.236Z,27.6140
2024-04-17T06:41:19.387Z,27.6080
2024-04-17T06:42:21.564Z,27.6380
2024-04-17T06:43:23.781Z,27.6040
2024-04-17T06:44:25.900Z,27.6060
2024-04-17T06:45:28.070Z,27.5770
2024-04-17T06:46:30.288Z,27.6360
2024-04-17T06:47:32.525Z,27.7250
2024-04-17T06:48:34.667Z,27.7290
2024-04-17T06:49:36.707Z,27.7140
2024-04-17T06:50:38.870Z,27.7300
2024-04-17T06:51:41.070Z,27.7120
2024-04-17T06:52:43.220Z,27.7030
2024-04-17T06:53:45.312Z,27.6920
2024-04-17T06:54:47.411Z,27.6800
2024-04-17T06:55:47.521Z,27.6800
2024-04-17T06:56:49.561Z,27.6640
2024-04-17T06:57:51.760Z,27.6690
2024-04-17T06:58:54.063Z,27.6640
2024-04-17T06:59:56.154Z,27.6730
2024-04-17T07:00:58.373Z,27.6920
2024-04-17T07:02:00.710Z,27.6870
2024-04-17T07:03:05.163Z,27.6870
2024-04-17T07:04:05.000Z,27.7020
2024-04-17T07:05:07.194Z,27.6920
2024-04-17T07:06:09.381Z,27.6920
2024-04-17T07:07:11.621Z,27.6870
2024-04-17T07:08:13.841Z,27.7130
2024-04-17T07:09:13.976Z,27.7180
2024-04-17T07:10:16.179Z,27.7350
2024-04-17T07:11:18.528Z,27.7670
2024-04-17T07:12:20.572Z,27.7740
2024-04-17T07:13:22.793Z,27.7290
2024-04-17T07:14:24.965Z,27.7420
2024-04-17T07:15:27.123Z,27.7520
2024-04-17T07:16:29.312Z,27.8070
2024-04-17T07:17:31.430Z,27.8240
2024-04-17T07:18:33.681Z,27.8500
2024-04-17T07:19:35.946Z,27.8700
2024-04-17T07:20:38.098Z,27.8980
2024-04-17T07:21:40.309Z,27.9000
2024-04-17T07:22:42.572Z,27.9010
2024-04-17T07:23:44.730Z,27.9060
2024-04-17T07:24:44.867Z,27.9010
2024-04-17T07:25:47.062Z,27.9060
2024-04-17T07:26:49.262Z,27.9290
2024-04-17T07:27:51.483Z,27.9460
2024-04-17T07:28:53.772Z,27.9790
2024-04-17T07:29:55.939Z,27.9670
2024-04-17T07:30:58.115Z,27.9570
2024-04-17T07:32:00.494Z,27.9620
2024-04-17T07:33:02.630Z,27.9670
2024-04-17T07:34:04.766Z,27.9730
2024-04-17T07:35:06.996Z,27.9730
2024-04-17T07:36:09.154Z,27.9900
2024-04-17T07:37:11.287Z,27.9850
2024-04-17T07:38:13.496Z,27.9900
2024-04-17T07:39:15.688Z,27.9790
2024-04-17T07:40:17.905Z,27.9790
2024-04-17T07:41:20.490Z,27.9960
2024-04-17T07:42:22.260Z,27.9900
2024-04-17T07:43:24.407Z,27.9960
2024-04-17T07:44:26.579Z,27.9960
2024-04-17T07:45:28.878Z,27.9960
2024-04-17T07:46:31.016Z,28.0070
2024-04-17T07:47:33.257Z,28.0120
2024-04-17T07:48:35.521Z,28.0120
2024-04-17T07:49:37.624Z,28.0380
2024-04-17T07:50:39.806Z,28.0320
2024-04-17T07:51:41.958Z,28.0380
2024-04-17T07:52:44.221Z,28.0610
2024-04-17T07:54:42.125Z,28.1020
2024-04-17T07:55:44.210Z,28.0910
2024-04-17T07:56:46.358Z,28.0920
2024-04-17T07:57:48.460Z,28.0760
2024-04-17T07:58:50.644Z,28.0810
2024-04-17T07:59:52.777Z,28.0760
2024-04-17T08:00:54.985Z,28.0830
2024-04-17T08:01:57.186Z,28.0770
2024-04-17T08:02:59.306Z,28.0550
2024-04-17T08:04:01.408Z,28.0660
2024-04-17T08:05:03.545Z,28.0770
2024-04-17T08:06:05.719Z,28.0990
2024-04-17T08:07:07.806Z,28.0870
2024-04-17T08:08:09.971Z,28.0810
2024-04-17T08:09:12.111Z,28.0770
2024-04-17T08:10:14.258Z,28.0730
2024-04-17T08:11:16.416Z,28.0840
2024-04-17T08:12:18.522Z,28.0790
2024-04-17T08:13:20.668Z,28.0570
2024-04-17T08:14:22.830Z,28.0960
2024-04-17T08:15:24.948Z,28.0730
2024-04-17T08:16:27.205Z,28.0840
2024-04-17T08:17:29.405Z,28.0840
2024-04-17T08:18:31.420Z,28.1110
2024-04-17T08:19:33.602Z,28.0990
2024-04-17T08:20:35.671Z,28.1110
2024-04-17T08:21:37.810Z,28.1190
2024-04-17T08:22:40.016Z,28.1110
2024-04-17T08:23:42.028Z,28.1440
2024-04-17T08:24:44.191Z,28.1140
2024-04-17T08:25:44.221Z,28.1140
2024-04-17T08:26:46.393Z,28.1160
2024-04-17T08:27:48.541Z,28.1310
2024-04-17T08:28:50.702Z,28.0990
2024-04-17T08:29:52.857Z,28.1140
2024-04-17T08:30:54.960Z,28.0000
2024-04-17T08:31:57.190Z,27.9210
2024-04-17T08:32:59.649Z,27.9270
2024-04-17T08:34:01.490Z,27.9260
2024-04-17T08:35:03.745Z,27.9510
2024-04-17T08:36:05.757Z,27.9770
2024-04-17T08:37:07.972Z,27.9920
2024-04-17T08:38:10.166Z,28.0200
2024-04-17T08:39:12.287Z,28.0640
2024-04-17T08:40:14.418Z,28.0880
2024-04-17T08:41:16.634Z,28.1210
2024-04-17T08:42:18.866Z,28.1640
2024-04-17T08:43:21.073Z,28.2180
2024-04-17T08:44:23.320Z,28.2420
2024-04-17T08:45:39.612Z,28.2640
2024-04-17T08:46:27.671Z,28.3140
2024-04-17T08:47:29.896Z,28.3500
2024-04-17T08:48:29.917Z,28.3450
2024-04-17T08:49:32.028Z,28.3560
2024-04-17T08:50:34.251Z,28.3670
2024-04-17T08:51:36.365Z,28.3790
2024-04-17T08:52:38.555Z,28.3850
2024-04-17T08:53:40.768Z,28.4010
2024-04-17T08:54:42.992Z,28.4120
2024-04-17T08:55:45.262Z,28.4010
2024-04-17T08:56:47.403Z,28.4010
2024-04-17T08:57:49.607Z,28.4280
2024-04-17T09:00:13.284Z,28.4870
2024-04-17T09:01:15.443Z,28.4760
2024-04-17T09:02:17.754Z,28.4660
2024-04-17T09:03:19.899Z,28.4620
2024-04-17T09:04:21.930Z,28.4730
2024-04-17T09:05:24.122Z,28.4810
2024-04-17T09:06:26.333Z,28.4760
2024-04-17T09:07:28.610Z,28.4920
2024-04-17T09:08:30.764Z,28.5040
2024-04-17T09:09:32.899Z,28.5090
2024-04-17T09:10:35.043Z,28.5060
2024-04-17T09:11:37.287Z,28.5200
2024-04-17T09:12:39.402Z,28.5090
2024-04-17T09:13:41.671Z,28.5090
2024-04-17T09:14:50.684Z,28.5270
2024-04-17T09:15:45.995Z,28.5320
2024-04-17T09:16:48.253Z,28.5230
2024-04-17T09:17:50.437Z,28.5060
2024-04-17T09:18:52.652Z,28.5120
2024-04-17T09:19:52.731Z,28.5170
2024-04-17T09:20:54.926Z,28.5120
2024-04-17T09:21:57.127Z,28.5120
2024-04-17T09:22:59.318Z,28.4830
2024-04-17T09:24:01.491Z,28.4780
2024-04-17T09:25:03.670Z,28.4440
2024-04-17T09:26:05.931Z,28.4620
2024-04-17T09:27:08.113Z,28.4710
2024-04-17T09:28:10.496Z,28.4980
2024-04-17T09:29:12.549Z,28.4870
2024-04-17T09:30:14.750Z,28.4870
2024-04-17T09:31:16.933Z,28.4710
2024-04-17T09:32:19.161Z,28.5000
2024-04-17T09:33:21.413Z,28.4940
2024-04-17T09:34:23.531Z,28.5060
2024-04-17T09:35:25.710Z,28.5170
2024-04-17T09:36:27.909Z,28.5330
2024-04-17T09:37:28.026Z,28.5320
2024-04-17T09:38:30.206Z,28.5490
2024-04-17T09:39:32.450Z,28.5700
2024-04-17T09:40:34.641Z,28.5830
2024-04-17T09:41:36.837Z,28.5990
2024-04-17T09:42:39.042Z,28.6490
2024-04-17T09:43:41.263Z,28.6510
2024-04-17T09:44:43.475Z,28.6170
2024-04-17T09:45:45.642Z,28.5990
2024-04-17T09:46:47.834Z,28.5610
2024-04-17T09:47:50.017Z,28.5730
2024-04-17T09:48:52.199Z,28.5690
2024-04-17T09:49:54.516Z,28.5630
2024-04-17T09:50:56.649Z,28.5400
2024-04-17T09:51:58.842Z,28.5290
2024-04-17T09:53:01.372Z,28.5630
2024-04-17T09:54:01.164Z,28.6250
2024-04-17T09:55:03.452Z,28.6410
2024-04-17T09:56:05.708Z,28.6410
2024-04-17T09:57:07.889Z,28.6350
2024-04-17T09:58:10.106Z,28.6250
2024-04-17T09:59:12.358Z,28.6190
2024-04-17T10:00:14.620Z,28.6250
2024-04-17T10:01:16.842Z,28.6300
2024-04-17T10:02:19.091Z,28.6140
2024-04-17T10:03:21.139Z,28.6570
2024-04-17T10:04:23.317Z,28.6690
2024-04-17T10:05:25.564Z,28.6520
2024-04-17T10:06:27.723Z,28.6570
2024-04-17T10:07:29.960Z,28.7760
2024-04-17T10:08:30.006Z,28.7430
2024-04-17T10:09:32.234Z,28.7010
2024-04-17T10:10:34.478Z,28.7740
2024-04-17T10:11:36.710Z,28.7460
2024-04-17T10:12:38.879Z,28.7700
2024-04-17T10:13:41.095Z,28.7720
2024-04-17T10:14:43.350Z,28.7380
2024-04-17T10:15:45.595Z,28.7460
2024-04-17T10:16:47.838Z,28.7680
2024-04-17T10:17:50.167Z,28.8290
2024-04-17T10:18:52.248Z,28.7900
2024-04-17T10:19:54.522Z,28.8180
2024-04-17T10:20:56.684Z,28.8530
2024-04-17T10:21:56.724Z,28.8240
2024-04-17T10:22:59.047Z,28.8180
2024-04-17T10:24:01.115Z,28.7900
2024-04-17T10:25:03.310Z,28.8530
2024-04-17T10:26:05.582Z,28.9020
2024-04-17T10:27:07.673Z,28.8740
2024-04-17T10:28:12.236Z,28.9190
2024-04-17T10:29:11.984Z,28.8800
2024-04-17T10:30:14.183Z,28.8960
2024-04-17T10:31:16.408Z,28.9300
2024-04-17T10:32:18.684Z,29.0140
2024-04-17T10:33:20.849Z,28.9920
2024-04-17T10:34:22.881Z,28.8960
2024-04-17T10:35:25.056Z,28.8850
2024-04-17T10:36:27.243Z,28.9920
2024-04-17T10:37:29.468Z,29.0310
2024-04-17T10:38:34.731Z,29.0260
2024-04-17T10:39:34.004Z,29.0970
2024-04-17T10:40:36.077Z,29.0680
2024-04-17T10:41:38.329Z,28.9450
2024-04-17T10:42:40.497Z,28.9780
2024-04-17T10:43:40.561Z,29.0680
2024-04-17T10:44:42.761Z,29.1240
2024-04-17T10:45:44.985Z,29.1510
2024-04-17T10:46:47.282Z,29.1300
2024-04-17T10:47:49.495Z,29.2320
2024-04-17T10:48:51.711Z,28.7870
2024-04-17T10:49:53.886Z,28.7310
2024-04-17T10:50:55.981Z,28.7760
2024-04-17T10:51:58.175Z,28.7340
2024-04-17T10:53:00.392Z,28.6750
2024-04-17T10:54:02.399Z,28.7470
2024-04-17T10:55:04.534Z,28.7100
2024-04-17T10:56:06.727Z,28.6760
2024-04-17T10:57:08.898Z,28.6810
2024-04-17T10:58:11.058Z,28.7160
2024-04-17T10:59:13.237Z,28.8460
2024-04-17T11:00:15.419Z,28.6560
2024-04-17T11:01:17.587Z,28.6490
2024-04-17T11:02:19.771Z,28.9290
2024-04-17T11:03:22.014Z,28.6930
2024-04-17T11:04:24.251Z,28.9450
2024-04-17T11:05:24.267Z,28.9670
2024-04-17T11:06:26.457Z,28.8660
2024-04-17T11:07:28.728Z,28.8280
2024-04-17T11:08:30.881Z,28.9400
2024-04-17T11:09:33.050Z,28.9670
2024-04-17T11:10:35.264Z,28.9640
2024-04-17T11:11:37.507Z,28.9250
2024-04-17T11:12:39.664Z,28.8630
2024-04-17T11:13:41.854Z,28.7490
2024-04-17T11:14:43.957Z,28.8950
2024-04-17T11:15:46.128Z,28.8660
2024-04-17T11:16:48.762Z,28.8610
2024-04-17T11:17:50.625Z,28.8700
2024-04-17T11:18:52.765Z,28.9150
2024-04-17T11:19:55.038Z,28.9040
2024-04-17T11:20:57.231Z,28.9150
2024-04-17T11:21:59.468Z,28.8800
2024-04-17T11:23:01.828Z,28.8960
2024-04-17T11:24:01.768Z,28.9090
2024-04-17T11:25:03.983Z,28.8940
2024-04-17T11:26:06.176Z,28.8700
2024-04-17T11:27:08.346Z,28.8190
2024-04-17T11:28:10.578Z,28.8430
2024-04-17T11:29:12.789Z,28.8590
2024-04-17T11:30:15.002Z,28.8640
2024-04-17T11:31:17.261Z,28.8660
2024-04-17T11:32:19.539Z,28.8700
2024-04-17T11:33:21.892Z,28.8590
2024-04-17T11:34:23.958Z,28.8220
2024-04-17T11:35:26.128Z,28.8220
2024-04-17T11:36:28.289Z,28.8440
2024-04-17T11:37:30.510Z,28.8220
2024-04-17T11:38:32.687Z,28.8140
2024-04-17T11:39:35.875Z,28.8200
2024-04-17T11:40:34.971Z,28.8460
2024-04-17T11:41:37.083Z,28.8200
2024-04-17T11:42:39.283Z,28.8200
2024-04-17T11:43:41.516Z,28.7920
2024-04-17T11:44:43.810Z,28.7820
2024-04-17T11:45:45.891Z,28.7870
2024-04-17T11:46:48.145Z,28.8430
2024-04-17T11:47:50.388Z,28.8140
2024-04-17T11:48:52.561Z,28.8320
2024-04-17T11:49:54.596Z,28.8590
2024-04-17T11:50:56.723Z,28.8390
2024-04-17T11:51:58.899Z,28.8390
2024-04-17T11:53:01.264Z,28.8050
2024-04-17T11:54:03.245Z,28.8120
2024-04-17T11:55:05.359Z,28.7890
2024-04-17T11:56:07.630Z,28.7890
2024-04-17T11:57:12.518Z,28.7790
2024-04-17T11:58:11.944Z,28.8090
2024-04-17T11:59:14.162Z,28.7940
2024-04-17T12:00:16.336Z,28.7680
2024-04-17T12:01:18.533Z,28.7570
2024-04-17T12:02:18.560Z,28.7460
2024-04-17T12:03:20.794Z,28.7180
2024-04-17T12:04:23.094Z,28.7160
2024-04-17T12:05:25.271Z,28.7010
2024-04-17T12:06:27.460Z,28.6880
2024-04-17T12:07:29.657Z,28.7000
2024-04-17T12:08:31.834Z,28.6930
2024-04-17T12:09:34.086Z,28.6790
2024-04-17T12:10:36.300Z,28.6790
2024-04-17T12:11:40.179Z,28.6790
2024-04-17T12:12:40.737Z,28.6850
2024-04-17T12:13:42.983Z,28.6620
2024-04-17T12:14:45.198Z,28.6620
2024-04-17T12:15:47.436Z,28.6440
2024-04-17T12:16:49.700Z,28.6290
2024-04-17T12:17:49.594Z,28.8500
2024-04-17T12:19:22.008Z,28.8880
2024-04-17T12:20:24.166Z,28.9170
2024-04-17T12:21:26.284Z,28.9450
2024-04-17T12:22:28.448Z,29.0180
2024-04-17T12:23:30.580Z,28.9820
2024-04-17T12:24:32.730Z,28.8590
2024-04-17T12:25:34.935Z,28.7310
2024-04-17T12:26:37.027Z,28.9820
2024-04-17T12:27:39.175Z,28.7630
2024-04-17T12:28:39.191Z,28.7970
2024-04-17T12:29:41.303Z,28.8700
2024-04-17T12:30:43.445Z,28.8580
2024-04-17T12:31:45.635Z,28.9320
2024-04-17T12:32:48.044Z,28.7350
2024-04-17T12:33:50.010Z,28.6900
2024-04-17T12:34:52.162Z,28.6700